メインページ
METAR-TAF:

METAR-TAF

空港 :

Ciudad Obregón, メキシコ

緯度: 27-24N, 経度: 109-50W, 海抜: 62m

現時点の気象観測

当レポートは11時間20分前の01:41(UTC)に作成
西の風 4kt
気温 19°C
湿度 60%
気圧 1016 hPa
視程: 16.1km
晴天

METAR: MMCN 100141Z 28004KT 10SM SKC 19/11 A3001 RMK ISOL CI

時間: 06:01 (13:01 UTC)

予報

当レポートは7時間29分前の05:32(UTC)に作成
予報は10日の 06時(UTC)から 11日の 06時(UTC)まで有効
の風 kt
視程: 10km
晴天
10日の 1800時(UTC)から
南/南西の風 10kt
視程: 10km
晴天
11日の 0400時(UTC)から
南/南西の風 5kt
視程: 10km
晴天

TAF: MMCN 100532Z 1006/1106 00000KT P6SM SKC FM101800 20010KT P6SM SKC FM110400 20005KT P6SM SKC

4,000以上の空港の気象観測と天気予報(METAR報とTAF報)

利用可能な観測所は地図上に黄色い丸と赤い丸で示す。

丸の上にカーソルを重ねると観測所名を参照できる。

次にクリックすると気象観測と天気予報を参照できる。

マップの切り替え:黒色「×」印の緑ボタンをクリックして拡大、「-」印の緑ボタンをクリックして縮小、緑色の三角印をクリックして隣りの地図に切り替え


METAR-TAF: